Flight Track Log - Related Links

Times and Time Zones

All times are in EDT time to prevent confusion due to time zone crossing. See the UAL3732 flight status page for this flight to view local times or setup timezone preferences in your user account.

Time Position Orientation Groundspeed Altitude Reporting Facility
EDT Latitude Longitude Course Direction KTS MPH feet Rate Location/Type
Sun 03:48:57 PM 41.9333 -87.9000 166° South 177 204 1,900  Level Chicago TRACON
Sun 03:49:57 PM 41.8833 -87.8667 154° Southeast 217 250 4,700 2,373 Climbing Chicago TRACON
Sun 03:51:00 PM 41.7003 -87.6994 159° South  Level Estimated
Sun 03:51:54 PM 41.7469 -87.7767 154° Southeast 293 337 8,900  Level Chicago Center
Sun 03:52:00 PM 41.6064 -87.6307 153° Southeast  Level Estimated
Sun 03:52:56 PM 41.6708 -87.7281 154° Southeast 302 348 11,500  Level Chicago Center
Sun 03:53:00 PM 41.5021 -87.5991 167° South  Level FlightAware Approximate
Sun 03:53:58 PM 41.5889 -87.6806 157° South 319 367 13,900  Level Chicago Center
Sun 03:54:00 PM 41.4089 -87.5289 166° South  Level Estimated
Sun 03:55:00 PM 41.5022 -87.6289 156° South 337 388 16,300  Level Chicago Center
Sun 03:56:02 PM 41.4114 -87.5778 157° South 349 402 18,300 2,081 Climbing Chicago Center
Sun 03:57:04 PM 41.2978 -87.5122 157° South 369 425 20,600 2,032 Climbing Chicago Center
Sun 03:58:06 PM 41.2006 -87.4561 157° South 379 436 22,500 1,161 Climbing Chicago Center
Sun 03:59:08 PM 41.0967 -87.3981 157° South 403 464 23,000 242 Climbing Chicago Center
Sun 04:00:10 PM 40.9847 -87.3350 157° South 432 497 23,000  Level Chicago Center
Sun 04:01:13 PM 40.8739 -87.2725 157° South 435 501 23,000  Level Chicago Center
Sun 04:02:15 PM 40.7406 -87.1981 157° South 435 501 23,000  Level Chicago Center
Sun 04:03:17 PM 40.6292 -87.1358 157° South 436 502 23,000 -48 Level Chicago Center
Sun 04:04:19 PM 40.5250 -87.0769 157° South 436 502 22,900 -1,597 Descending Chicago Center
Sun 04:05:21 PM 40.4147 -87.0158 157° South 429 494 19,700 -3,435 Descending Chicago Center
Sun 04:06:23 PM 40.2900 -86.9478 157° South 415 478 15,800 -3,484 Descending Chicago Center
Sun 04:07:25 PM 40.1892 -86.8908 157° South 396 456 12,500 -2,323 Descending Chicago Center
Sun 04:08:27 PM 40.1103 -86.7975 138° Southeast 388 447 11,000 -750 Descending Chicago Center
Sun 04:09:25 PM 40.0403 -86.6956 132° Southeast 374 430 11,000  Level Indianapolis Center
Sun 04:10:27 PM 39.9703 -86.5933 132° Southeast 374 430 11,000 -484 Level Indianapolis Center
Sun 04:11:29 PM 39.9106 -86.5022 130° Southeast 339 390 10,000 -1,355 Descending Indianapolis Center
Sun 04:12:31 PM 39.8547 -86.4200 131° Southeast 306 352 8,200 -1,548 Descending Indianapolis Center
Sun 04:13:33 PM 39.8061 -86.3369 127° Southeast 298 343 6,800 -1,765 Descending Indianapolis Center
Sun 04:14:30 PM 39.8500 -86.2500 57° Northeast 276 318 4,700 -1,436 Descending Indianapolis TRACON
Sun 04:15:30 PM 39.8833 -86.1667 62° Northeast 272 313 4,000 -450 Descending Indianapolis TRACON
Sun 04:16:30 PM 39.8333 -86.1500 166° South 216 249 3,800 -700 Descending Indianapolis TRACON
Sun 04:17:30 PM 39.8000 -86.2000 229° Southwest 188 216 2,600 -1,200 Descending Indianapolis TRACON

Login

Don't have an account? Register now (free) for customized features, flight alerts, and more!